Tutti
Golden Grove Airport (Golden Grove, Western Australia) YGGE Meteo
|
Golden Grove, Western Australia (YGGE)
Cielo sereno
Venti leggeri |
|
12 °C |
Previsione area Terminal YGGE
| Date | Time (AWST) | Flight Rules | Wind Dir. | Speed | Type | Height AGL (ft) | Visibility | Remarks | ||||||
|---|---|---|---|---|---|---|---|---|---|---|---|---|---|---|
Storico METAR YGGE recente
| Date | Time (AWST) | Flight Rules | Wind Dir. | Speed | Type | Height AGL (ft) | Visibility | Temp (°C) | Temp (°F) | Dew Point (°C) | Dew Point (°F) | Rel. Humid. | Pressure | Density Altitude | Remarks |
|---|---|---|---|---|---|---|---|---|---|---|---|---|---|---|---|
| 02-mag | 22:00 | VFR | 140° | 6 kt | 10000 meters | 12° | 53° | 2° | 35° | 50% | 1023 mb | 773 ft | |||
| 02-mag | 21:00 | VFR | 150° | 6 kt | 10000 meters | 12° | 53° | 2° | 35° | 50% | 1023 mb | 773 ft | |||
| 02-mag | 20:00 | VFR | 150° | 7 kt | 10000 meters | 13° | 55° | 2° | 35° | 47% | 1022 mb | 923 ft | |||
| 02-mag | 19:00 | VFR | 160° | 5 kt | 10000 meters | 14° | 57° | 1° | 33° | 41% | 1022 mb | 1.043 ft | |||
| 02-mag | 18:00 | VFR | 130° | 6 kt | 10000 meters | 15° | 59° | 0° | 32° | 36% | 1021 mb | 1.192 ft | |||
| 02-mag | 17:00 | VFR | 120° | 9 kt | 10000 meters | 17° | 62° | 0° | 32° | 32% | 1021 mb | 1.432 ft | |||
| 02-mag | 16:00 | VFR | 120° | 9 kt | 10000 meters | 17° | 62° | 0° | 32° | 32% | 1021 mb | 1.432 ft | |||
| 02-mag | 15:00 | VFR | 120° | 9 kt | 10000 meters | 17° | 62° | 0° | 32° | 32% | 1021 mb | 1.432 ft | |||
| 02-mag | 14:00 | VFR | 150° | 9 kt | 10000 meters | 17° | 62° | -2° | 28° | 27% | 1022 mb | 1.403 ft | |||
| 02-mag | 13:00 | VFR | 80° | 8 kt | 10000 meters | 16° | 60° | 0° | 32° | 34% | 1022 mb | 1.283 ft | |||
| 02-mag | 12:00 | VFR | 100° | 9 kt | 10000 meters | 15° | 59° | 1° | 33° | 39% | 1023 mb | 1.133 ft | |||
| 02-mag | 11:00 | VFR | 100° | 10 kt | 10000 meters | 14° | 57° | 2° | 35° | 44% | 1024 mb | 984 ft | |||
| 02-mag | 10:00 | VFR | 100° | 13 kt | 10000 meters | 12° | 53° | 2° | 35° | 50% | 1024 mb | 744 ft | |||
| 02-mag | 09:00 | VFR | 100° | 12 kt | 10000 meters | 11° | 51° | 2° | 35° | 54% | 1024 mb | 624 ft | |||
| 02-mag | 08:00 | VFR | 120° | 11 kt | 10000 meters | 9° | 48° | 2° | 35° | 61% | 1024 mb | 384 ft | |||
| 02-mag | 07:00 | VFR | 130° | 6 kt | 10000 meters | 6° | 42° | 2° | 35° | 75% | 1023 mb | 53 ft | |||
| 02-mag | 06:00 | VFR | 130° | 6 kt | 10000 meters | 7° | 44° | 1° | 33° | 66% | 1023 mb | 173 ft | |||
| 02-mag | 05:00 | VFR | 140° | 7 kt | 10000 meters | 7° | 44° | 1° | 33° | 66% | 1023 mb | 173 ft | |||
| 02-mag | 04:00 | VFR | 150° | 5 kt | 10000 meters | 7° | 44° | 1° | 33° | 66% | 1022 mb | 203 ft | |||
| 02-mag | 03:00 | VFR | 150° | 6 kt | 10000 meters | 8° | 46° | 1° | 33° | 61% | 1022 mb | 323 ft | |||
| 02-mag | 02:00 | VFR | 150° | 6 kt | 10000 meters | 8° | 46° | 1° | 33° | 61% | 1023 mb | 293 ft | |||
| 02-mag | 01:00 | VFR | 130° | 5 kt | 10000 meters | 8° | 46° | 1° | 33° | 61% | 1023 mb | 293 ft | |||
| 02-mag | 00:00 | VFR | 130° | 6 kt | 10000 meters | 9° | 48° | 1° | 33° | 57% | 1022 mb | 443 ft | |||
| 01-mag | 23:00 | VFR | 140° | 4 kt | 10000 meters | 10° | 50° | 1° | 33° | 53% | 1023 mb | 533 ft |
Accedi
| Il tuo browser non è supportato. fai l'upgrade del tuo browser |
